sensor_id;sensor_type;location;lat;lon;timestamp;P1;durP1;ratioP1;P2;durP2;ratioP2
67757;SDS011;54562;47.620;18.786;2023-05-29T07:56:15;8.60;;;4.40;;
67757;SDS011;54562;47.620;18.786;2023-05-29T07:59:21;8.60;;;4.30;;
67757;SDS011;54562;47.620;18.786;2023-05-29T08:02:28;9.40;;;4.50;;
67757;SDS011;54562;47.620;18.786;2023-05-29T08:05:34;10.30;;;4.80;;
67757;SDS011;54562;47.620;18.786;2023-05-29T08:08:40;8.50;;;4.30;;
67757;SDS011;54562;47.620;18.786;2023-05-29T08:11:47;9.10;;;4.70;;
67757;SDS011;54562;47.620;18.786;2023-05-29T08:14:55;9.40;;;4.40;;
67757;SDS011;54562;47.620;18.786;2023-05-29T08:18:02;10.10;;;4.70;;
67757;SDS011;54562;47.620;18.786;2023-05-29T08:21:10;11.40;;;4.50;;
67757;SDS011;54562;47.620;18.786;2023-05-29T08:24:17;10.30;;;4.50;;
67757;SDS011;54562;47.620;18.786;2023-05-29T08:27:23;11.20;;;4.70;;
67757;SDS011;54562;47.620;18.786;2023-05-29T08:30:29;8.00;;;4.40;;
67757;SDS011;54562;47.620;18.786;2023-05-29T08:33:36;10.90;;;4.40;;
67757;SDS011;54562;47.620;18.786;2023-05-29T08:36:42;10.50;;;4.70;;
67757;SDS011;54562;47.620;18.786;2023-05-29T08:39:48;11.50;;;4.60;;
67757;SDS011;54562;47.620;18.786;2023-05-29T08:42:57;12.70;;;4.50;;
67757;SDS011;54562;47.620;18.786;2023-05-29T08:46:04;9.90;;;4.60;;
67757;SDS011;54562;47.620;18.786;2023-05-29T08:49:10;7.70;;;4.40;;
67757;SDS011;54562;47.620;18.786;2023-05-29T08:52:22;9.00;;;4.20;;
67757;SDS011;54562;47.620;18.786;2023-05-29T08:55:30;7.60;;;4.70;;
67757;SDS011;54562;47.620;18.786;2023-05-29T08:58:37;9.10;;;4.40;;
67757;SDS011;54562;47.620;18.786;2023-05-29T09:01:44;9.80;;;4.70;;
67757;SDS011;54562;47.620;18.786;2023-05-29T09:04:51;10.00;;;4.90;;
67757;SDS011;54562;47.620;18.786;2023-05-29T09:07:59;9.00;;;4.30;;
67757;SDS011;54562;47.620;18.786;2023-05-29T09:11:07;9.20;;;4.60;;
67757;SDS011;54562;47.620;18.786;2023-05-29T09:17:40;10.80;;;4.90;;
67757;SDS011;54562;47.620;18.786;2023-05-29T09:20:46;9.50;;;4.60;;
67757;SDS011;54562;47.620;18.786;2023-05-29T09:23:52;10.00;;;4.90;;
67757;SDS011;54562;47.620;18.786;2023-05-29T09:27:04;10.20;;;4.70;;
67757;SDS011;54562;47.620;18.786;2023-05-29T09:30:12;8.00;;;4.40;;
67757;SDS011;54562;47.620;18.786;2023-05-29T09:33:46;10.00;;;4.80;;
67757;SDS011;54562;47.620;18.786;2023-05-29T09:36:53;9.90;;;4.80;;
67757;SDS011;54562;47.620;18.786;2023-05-29T09:40:07;11.40;;;4.80;;
67757;SDS011;54562;47.620;18.786;2023-05-29T09:43:15;8.70;;;4.70;;
67757;SDS011;54562;47.620;18.786;2023-05-29T09:46:24;8.70;;;4.50;;
67757;SDS011;54562;47.620;18.786;2023-05-29T09:49:30;12.30;;;4.80;;
67757;SDS011;54562;47.620;18.786;2023-05-29T09:52:37;10.10;;;4.80;;
67757;SDS011;54562;47.620;18.786;2023-05-29T09:55:43;8.40;;;4.90;;
67757;SDS011;54562;47.620;18.786;2023-05-29T09:59:01;8.60;;;4.40;;
67757;SDS011;54562;47.620;18.786;2023-05-29T10:02:08;9.40;;;4.70;;
67757;SDS011;54562;47.620;18.786;2023-05-29T10:05:17;12.70;;;4.80;;
67757;SDS011;54562;47.620;18.786;2023-05-29T10:08:24;8.90;;;4.90;;
67757;SDS011;54562;47.620;18.786;2023-05-29T10:11:31;9.20;;;4.70;;
67757;SDS011;54562;47.620;18.786;2023-05-29T10:14:38;10.00;;;4.80;;
67757;SDS011;54562;47.620;18.786;2023-05-29T10:17:47;9.70;;;4.60;;
67757;SDS011;54562;47.620;18.786;2023-05-29T10:20:56;12.60;;;5.00;;
67757;SDS011;54562;47.620;18.786;2023-05-29T10:24:03;10.20;;;4.90;;
67757;SDS011;54562;47.620;18.786;2023-05-29T10:27:11;9.90;;;4.80;;
67757;SDS011;54562;47.620;18.786;2023-05-29T10:30:21;8.80;;;4.80;;
67757;SDS011;54562;47.620;18.786;2023-05-29T10:33:43;9.70;;;4.90;;
67757;SDS011;54562;47.620;18.786;2023-05-29T10:37:03;9.90;;;4.80;;
67757;SDS011;54562;47.620;18.786;2023-05-29T10:40:12;9.40;;;4.50;;
67757;SDS011;54562;47.620;18.786;2023-05-29T10:50:12;8.90;;;4.40;;
67757;SDS011;54562;47.620;18.786;2023-05-29T10:53:22;11.00;;;4.70;;
67757;SDS011;54562;47.620;18.786;2023-05-29T10:56:30;9.10;;;4.80;;
67757;SDS011;54562;47.620;18.786;2023-05-29T10:59:37;11.40;;;4.80;;
67757;SDS011;54562;47.620;18.786;2023-05-29T11:02:43;11.30;;;5.20;;
67757;SDS011;54562;47.620;18.786;2023-05-29T11:05:58;9.30;;;4.90;;
67757;SDS011;54562;47.620;18.786;2023-05-29T11:09:12;8.30;;;4.70;;
67757;SDS011;54562;47.620;18.786;2023-05-29T11:12:33;9.60;;;4.60;;
67757;SDS011;54562;47.620;18.786;2023-05-29T11:15:39;10.20;;;5.00;;
67757;SDS011;54562;47.620;18.786;2023-05-29T11:18:47;11.40;;;5.50;;
67757;SDS011;54562;47.620;18.786;2023-05-29T11:21:56;10.40;;;4.90;;
67757;SDS011;54562;47.620;18.786;2023-05-29T11:25:09;9.10;;;4.80;;
67757;SDS011;54562;47.620;18.786;2023-05-29T11:28:16;8.80;;;4.90;;
67757;SDS011;54562;47.620;18.786;2023-05-29T11:31:23;9.10;;;5.00;;
67757;SDS011;54562;47.620;18.786;2023-05-29T11:34:32;9.10;;;4.90;;
67757;SDS011;54562;47.620;18.786;2023-05-29T11:37:39;8.20;;;5.00;;
67757;SDS011;54562;47.620;18.786;2023-05-29T11:40:48;8.70;;;4.90;;
67757;SDS011;54562;47.620;18.786;2023-05-29T11:43:59;9.20;;;5.20;;
67757;SDS011;54562;47.620;18.786;2023-05-29T11:47:06;9.70;;;5.00;;
67757;SDS011;54562;47.620;18.786;2023-05-29T11:50:18;9.80;;;5.00;;
67757;SDS011;54562;47.620;18.786;2023-05-29T11:53:26;9.40;;;5.20;;
67757;SDS011;54562;47.620;18.786;2023-05-29T11:56:33;10.10;;;5.10;;
67757;SDS011;54562;47.620;18.786;2023-05-29T11:59:44;10.60;;;5.30;;
67757;SDS011;54562;47.620;18.786;2023-05-29T12:02:50;13.30;;;5.80;;
67757;SDS011;54562;47.620;18.786;2023-05-29T12:05:57;11.30;;;5.70;;
67757;SDS011;54562;47.620;18.786;2023-05-29T12:09:05;14.90;;;6.00;;
67757;SDS011;54562;47.620;18.786;2023-05-29T12:12:12;11.60;;;6.40;;
67757;SDS011;54562;47.620;18.786;2023-05-29T12:15:19;12.00;;;7.00;;
67757;SDS011;54562;47.620;18.786;2023-05-29T12:18:25;12.70;;;6.80;;
67757;SDS011;54562;47.620;18.786;2023-05-29T12:21:33;12.30;;;6.20;;
67757;SDS011;54562;47.620;18.786;2023-05-29T12:24:40;9.40;;;5.50;;
67757;SDS011;54562;47.620;18.786;2023-05-29T12:27:47;12.10;;;6.20;;
67757;SDS011;54562;47.620;18.786;2023-05-29T12:30:57;9.90;;;5.90;;
67757;SDS011;54562;47.620;18.786;2023-05-29T12:34:08;10.50;;;6.10;;
67757;SDS011;54562;47.620;18.786;2023-05-29T12:37:21;10.80;;;5.80;;
67757;SDS011;54562;47.620;18.786;2023-05-29T12:40:30;9.70;;;5.90;;
67757;SDS011;54562;47.620;18.786;2023-05-29T12:43:37;11.40;;;6.00;;
67757;SDS011;54562;47.620;18.786;2023-05-29T12:46:45;10.80;;;6.30;;
67757;SDS011;54562;47.620;18.786;2023-05-29T12:49:52;10.40;;;6.20;;
67757;SDS011;54562;47.620;18.786;2023-05-29T12:53:07;9.70;;;5.90;;
67757;SDS011;54562;47.620;18.786;2023-05-29T12:56:15;11.00;;;6.00;;
67757;SDS011;54562;47.620;18.786;2023-05-29T12:59:21;10.50;;;6.50;;
67757;SDS011;54562;47.620;18.786;2023-05-29T13:02:27;9.30;;;5.70;;
67757;SDS011;54562;47.620;18.786;2023-05-29T13:05:34;10.60;;;5.40;;
67757;SDS011;54562;47.620;18.786;2023-05-29T13:08:41;11.20;;;5.20;;
67757;SDS011;54562;47.620;18.786;2023-05-29T13:11:47;10.10;;;5.60;;
67757;SDS011;54562;47.620;18.786;2023-05-29T13:14:53;10.20;;;5.90;;
67757;SDS011;54562;47.620;18.786;2023-05-29T13:18:00;10.30;;;5.60;;
67757;SDS011;54562;47.620;18.786;2023-05-29T13:21:06;8.20;;;5.20;;
67757;SDS011;54562;47.620;18.786;2023-05-29T13:24:13;8.20;;;5.10;;
67757;SDS011;54562;47.620;18.786;2023-05-29T13:27:19;8.90;;;5.20;;
67757;SDS011;54562;47.620;18.786;2023-05-29T13:30:27;12.40;;;5.60;;
67757;SDS011;54562;47.620;18.786;2023-05-29T13:33:33;7.90;;;4.80;;
67757;SDS011;54562;47.620;18.786;2023-05-29T13:36:40;8.60;;;5.10;;
67757;SDS011;54562;47.620;18.786;2023-05-29T13:39:48;10.80;;;5.30;;
67757;SDS011;54562;47.620;18.786;2023-05-29T13:42:57;10.10;;;5.10;;
67757;SDS011;54562;47.620;18.786;2023-05-29T13:46:04;11.80;;;5.30;;
67757;SDS011;54562;47.620;18.786;2023-05-29T13:49:11;10.50;;;5.40;;
67757;SDS011;54562;47.620;18.786;2023-05-29T13:52:18;9.40;;;5.10;;
67757;SDS011;54562;47.620;18.786;2023-05-29T13:55:26;8.40;;;5.30;;
67757;SDS011;54562;47.620;18.786;2023-05-29T13:58:33;8.70;;;5.20;;
67757;SDS011;54562;47.620;18.786;2023-05-29T14:01:40;10.50;;;5.40;;
67757;SDS011;54562;47.620;18.786;2023-05-29T14:04:46;8.10;;;5.40;;
67757;SDS011;54562;47.620;18.786;2023-05-29T14:07:53;10.10;;;5.70;;
67757;SDS011;54562;47.620;18.786;2023-05-29T14:10:59;9.90;;;5.80;;
67757;SDS011;54562;47.620;18.786;2023-05-29T14:14:06;9.20;;;5.60;;
67757;SDS011;54562;47.620;18.786;2023-05-29T14:17:13;10.90;;;6.10;;
67757;SDS011;54562;47.620;18.786;2023-05-29T14:20:19;11.10;;;5.90;;
67757;SDS011;54562;47.620;18.786;2023-05-29T14:23:25;9.50;;;5.80;;
67757;SDS011;54562;47.620;18.786;2023-05-29T14:26:32;8.90;;;5.50;;
67757;SDS011;54562;47.620;18.786;2023-05-29T14:29:38;9.00;;;5.60;;
67757;SDS011;54562;47.620;18.786;2023-05-29T14:32:45;11.10;;;5.80;;
67757;SDS011;54562;47.620;18.786;2023-05-29T14:35:51;8.80;;;5.40;;
67757;SDS011;54562;47.620;18.786;2023-05-29T14:38:58;9.30;;;5.30;;
67757;SDS011;54562;47.620;18.786;2023-05-29T14:42:06;9.80;;;5.60;;
67757;SDS011;54562;47.620;18.786;2023-05-29T14:45:13;14.80;;;5.10;;
67757;SDS011;54562;47.620;18.786;2023-05-29T14:48:20;8.80;;;5.00;;
67757;SDS011;54562;47.620;18.786;2023-05-29T14:51:26;8.90;;;5.30;;
67757;SDS011;54562;47.620;18.786;2023-05-29T14:54:33;8.10;;;5.00;;
67757;SDS011;54562;47.620;18.786;2023-05-29T14:57:39;10.10;;;4.80;;
67757;SDS011;54562;47.620;18.786;2023-05-29T15:00:45;12.50;;;7.20;;
67757;SDS011;54562;47.620;18.786;2023-05-29T15:03:52;8.90;;;4.70;;
67757;SDS011;54562;47.620;18.786;2023-05-29T15:06:58;7.80;;;4.80;;
67757;SDS011;54562;47.620;18.786;2023-05-29T15:10:09;8.40;;;4.70;;
67757;SDS011;54562;47.620;18.786;2023-05-29T15:13:15;10.90;;;5.00;;
67757;SDS011;54562;47.620;18.786;2023-05-29T15:16:22;9.00;;;5.00;;
67757;SDS011;54562;47.620;18.786;2023-05-29T15:19:28;8.40;;;5.20;;
67757;SDS011;54562;47.620;18.786;2023-05-29T15:22:36;9.40;;;5.50;;
67757;SDS011;54562;47.620;18.786;2023-05-29T15:25:42;9.20;;;5.20;;
67757;SDS011;54562;47.620;18.786;2023-05-29T15:28:49;13.60;;;5.40;;
67757;SDS011;54562;47.620;18.786;2023-05-29T15:31:55;9.40;;;5.00;;
67757;SDS011;54562;47.620;18.786;2023-05-29T15:35:02;8.40;;;4.80;;
67757;SDS011;54562;47.620;18.786;2023-05-29T15:38:09;9.30;;;4.90;;
67757;SDS011;54562;47.620;18.786;2023-05-29T15:41:17;10.60;;;5.10;;
67757;SDS011;54562;47.620;18.786;2023-05-29T15:44:23;9.80;;;5.10;;
67757;SDS011;54562;47.620;18.786;2023-05-29T15:47:30;16.40;;;5.60;;
67757;SDS011;54562;47.620;18.786;2023-05-29T15:50:36;9.90;;;5.40;;
67757;SDS011;54562;47.620;18.786;2023-05-29T15:53:43;8.60;;;4.80;;
67757;SDS011;54562;47.620;18.786;2023-05-29T15:56:50;10.20;;;5.30;;
67757;SDS011;54562;47.620;18.786;2023-05-29T15:59:56;10.60;;;5.10;;
67757;SDS011;54562;47.620;18.786;2023-05-29T16:03:03;12.60;;;5.30;;
67757;SDS011;54562;47.620;18.786;2023-05-29T16:06:09;9.00;;;5.00;;
67757;SDS011;54562;47.620;18.786;2023-05-29T16:09:16;10.10;;;5.20;;
67757;SDS011;54562;47.620;18.786;2023-05-29T16:12:23;11.20;;;5.60;;
67757;SDS011;54562;47.620;18.786;2023-05-29T16:15:29;10.20;;;5.50;;
67757;SDS011;54562;47.620;18.786;2023-05-29T16:18:36;12.40;;;5.90;;
67757;SDS011;54562;47.620;18.786;2023-05-29T16:21:42;11.60;;;5.30;;
67757;SDS011;54562;47.620;18.786;2023-05-29T16:24:48;9.30;;;5.50;;
67757;SDS011;54562;47.620;18.786;2023-05-29T16:27:55;11.80;;;5.50;;
67757;SDS011;54562;47.620;18.786;2023-05-29T16:31:01;11.50;;;5.50;;
67757;SDS011;54562;47.620;18.786;2023-05-29T16:34:08;9.80;;;5.20;;
67757;SDS011;54562;47.620;18.786;2023-05-29T16:37:15;10.50;;;5.50;;
67757;SDS011;54562;47.620;18.786;2023-05-29T16:40:21;10.30;;;5.60;;
67757;SDS011;54562;47.620;18.786;2023-05-29T16:43:28;12.30;;;5.70;;
67757;SDS011;54562;47.620;18.786;2023-05-29T16:46:34;11.30;;;5.70;;
67757;SDS011;54562;47.620;18.786;2023-05-29T16:49:41;16.20;;;5.90;;
67757;SDS011;54562;47.620;18.786;2023-05-29T16:52:47;9.70;;;5.30;;
67757;SDS011;54562;47.620;18.786;2023-05-29T16:55:53;9.10;;;5.80;;
67757;SDS011;54562;47.620;18.786;2023-05-29T16:59:00;10.50;;;5.40;;
67757;SDS011;54562;47.620;18.786;2023-05-29T17:02:07;9.90;;;5.50;;
67757;SDS011;54562;47.620;18.786;2023-05-29T17:05:13;10.50;;;5.50;;
67757;SDS011;54562;47.620;18.786;2023-05-29T17:08:20;12.70;;;6.30;;
67757;SDS011;54562;47.620;18.786;2023-05-29T17:11:26;13.30;;;6.40;;
67757;SDS011;54562;47.620;18.786;2023-05-29T17:14:33;10.60;;;5.80;;
67757;SDS011;54562;47.620;18.786;2023-05-29T17:17:39;10.10;;;6.00;;
67757;SDS011;54562;47.620;18.786;2023-05-29T17:20:45;8.40;;;5.60;;
67757;SDS011;54562;47.620;18.786;2023-05-29T17:23:52;9.40;;;5.50;;
67757;SDS011;54562;47.620;18.786;2023-05-29T17:26:58;9.90;;;5.50;;
67757;SDS011;54562;47.620;18.786;2023-05-29T17:30:07;10.10;;;5.40;;
67757;SDS011;54562;47.620;18.786;2023-05-29T17:33:14;9.50;;;5.90;;
67757;SDS011;54562;47.620;18.786;2023-05-29T17:36:20;10.00;;;5.50;;
67757;SDS011;54562;47.620;18.786;2023-05-29T17:39:27;10.00;;;5.70;;
67757;SDS011;54562;47.620;18.786;2023-05-29T17:42:33;10.90;;;5.90;;
67757;SDS011;54562;47.620;18.786;2023-05-29T17:45:40;11.00;;;5.50;;
67757;SDS011;54562;47.620;18.786;2023-05-29T17:48:49;10.20;;;5.70;;
67757;SDS011;54562;47.620;18.786;2023-05-29T17:51:56;10.40;;;6.20;;
67757;SDS011;54562;47.620;18.786;2023-05-29T17:55:03;12.50;;;5.80;;
67757;SDS011;54562;47.620;18.786;2023-05-29T17:58:10;10.70;;;5.40;;
67757;SDS011;54562;47.620;18.786;2023-05-29T18:01:17;11.10;;;5.70;;
67757;SDS011;54562;47.620;18.786;2023-05-29T18:04:23;11.20;;;6.00;;
67757;SDS011;54562;47.620;18.786;2023-05-29T18:07:29;13.30;;;5.60;;
67757;SDS011;54562;47.620;18.786;2023-05-29T18:10:35;12.00;;;5.60;;
67757;SDS011;54562;47.620;18.786;2023-05-29T18:13:41;10.50;;;5.60;;
67757;SDS011;54562;47.620;18.786;2023-05-29T18:16:47;9.80;;;5.70;;
67757;SDS011;54562;47.620;18.786;2023-05-29T18:19:54;9.80;;;5.90;;
67757;SDS011;54562;47.620;18.786;2023-05-29T18:23:00;10.80;;;5.90;;
67757;SDS011;54562;47.620;18.786;2023-05-29T18:26:06;13.20;;;6.30;;
67757;SDS011;54562;47.620;18.786;2023-05-29T18:29:13;11.30;;;6.10;;
67757;SDS011;54562;47.620;18.786;2023-05-29T18:32:19;11.20;;;6.60;;
67757;SDS011;54562;47.620;18.786;2023-05-29T18:35:26;12.00;;;5.90;;
67757;SDS011;54562;47.620;18.786;2023-05-29T18:38:32;10.10;;;6.40;;
67757;SDS011;54562;47.620;18.786;2023-05-29T18:41:40;12.80;;;6.20;;
67757;SDS011;54562;47.620;18.786;2023-05-29T18:44:48;10.20;;;6.00;;
67757;SDS011;54562;47.620;18.786;2023-05-29T18:47:55;11.10;;;6.10;;
67757;SDS011;54562;47.620;18.786;2023-05-29T18:51:02;10.50;;;6.70;;
67757;SDS011;54562;47.620;18.786;2023-05-29T18:54:09;13.60;;;6.10;;
67757;SDS011;54562;47.620;18.786;2023-05-29T18:57:16;11.10;;;6.60;;
67757;SDS011;54562;47.620;18.786;2023-05-29T19:00:22;10.50;;;5.80;;
67757;SDS011;54562;47.620;18.786;2023-05-29T19:03:28;11.90;;;6.20;;
67757;SDS011;54562;47.620;18.786;2023-05-29T19:06:35;11.10;;;6.50;;
67757;SDS011;54562;47.620;18.786;2023-05-29T19:09:42;13.90;;;6.60;;
67757;SDS011;54562;47.620;18.786;2023-05-29T19:12:48;10.10;;;6.10;;
67757;SDS011;54562;47.620;18.786;2023-05-29T19:15:54;13.30;;;6.60;;
67757;SDS011;54562;47.620;18.786;2023-05-29T19:19:02;12.40;;;6.50;;
67757;SDS011;54562;47.620;18.786;2023-05-29T19:25:16;10.40;;;6.20;;
67757;SDS011;54562;47.620;18.786;2023-05-29T19:28:23;13.00;;;6.50;;
67757;SDS011;54562;47.620;18.786;2023-05-29T19:31:36;11.20;;;6.20;;
67757;SDS011;54562;47.620;18.786;2023-05-29T19:34:42;13.20;;;6.40;;
67757;SDS011;54562;47.620;18.786;2023-05-29T19:37:49;10.00;;;6.50;;
67757;SDS011;54562;47.620;18.786;2023-05-29T19:40:55;11.00;;;6.30;;
67757;SDS011;54562;47.620;18.786;2023-05-29T19:44:02;10.60;;;6.40;;
67757;SDS011;54562;47.620;18.786;2023-05-29T19:47:12;9.80;;;6.20;;
67757;SDS011;54562;47.620;18.786;2023-05-29T19:50:19;11.40;;;6.50;;
67757;SDS011;54562;47.620;18.786;2023-05-29T19:53:26;11.30;;;6.50;;
67757;SDS011;54562;47.620;18.786;2023-05-29T19:56:33;10.30;;;6.30;;
67757;SDS011;54562;47.620;18.786;2023-05-29T19:59:39;12.10;;;6.40;;
67757;SDS011;54562;47.620;18.786;2023-05-29T20:02:51;10.80;;;6.10;;
67757;SDS011;54562;47.620;18.786;2023-05-29T20:05:58;9.40;;;6.40;;
67757;SDS011;54562;47.620;18.786;2023-05-29T20:09:05;12.20;;;6.10;;
67757;SDS011;54562;47.620;18.786;2023-05-29T20:12:12;15.90;;;6.30;;
67757;SDS011;54562;47.620;18.786;2023-05-29T20:15:18;11.90;;;6.30;;
67757;SDS011;54562;47.620;18.786;2023-05-29T20:18:25;12.20;;;6.40;;
67757;SDS011;54562;47.620;18.786;2023-05-29T20:21:31;10.40;;;6.50;;
67757;SDS011;54562;47.620;18.786;2023-05-29T20:24:38;10.10;;;6.10;;
67757;SDS011;54562;47.620;18.786;2023-05-29T20:27:45;12.40;;;6.70;;
67757;SDS011;54562;47.620;18.786;2023-05-29T20:30:51;9.60;;;6.00;;
67757;SDS011;54562;47.620;18.786;2023-05-29T20:33:58;9.90;;;6.10;;
67757;SDS011;54562;47.620;18.786;2023-05-29T20:37:05;9.80;;;6.30;;
67757;SDS011;54562;47.620;18.786;2023-05-29T20:40:12;9.80;;;5.80;;
67757;SDS011;54562;47.620;18.786;2023-05-29T20:43:18;10.40;;;6.80;;
67757;SDS011;54562;47.620;18.786;2023-05-29T20:46:25;11.30;;;6.30;;
67757;SDS011;54562;47.620;18.786;2023-05-29T20:49:33;11.70;;;6.60;;
67757;SDS011;54562;47.620;18.786;2023-05-29T20:52:40;11.90;;;5.80;;
67757;SDS011;54562;47.620;18.786;2023-05-29T20:55:47;10.60;;;6.50;;
67757;SDS011;54562;47.620;18.786;2023-05-29T20:58:54;10.70;;;6.40;;
67757;SDS011;54562;47.620;18.786;2023-05-29T21:02:02;9.70;;;6.10;;
67757;SDS011;54562;47.620;18.786;2023-05-29T21:05:09;10.00;;;6.30;;
67757;SDS011;54562;47.620;18.786;2023-05-29T21:08:16;9.80;;;6.40;;
67757;SDS011;54562;47.620;18.786;2023-05-29T21:11:24;10.20;;;6.00;;
67757;SDS011;54562;47.620;18.786;2023-05-29T21:14:31;10.40;;;6.50;;
67757;SDS011;54562;47.620;18.786;2023-05-29T21:17:37;10.10;;;6.50;;
67757;SDS011;54562;47.620;18.786;2023-05-29T21:20:44;10.10;;;6.40;;
67757;SDS011;54562;47.620;18.786;2023-05-29T21:23:53;11.70;;;6.70;;
67757;SDS011;54562;47.620;18.786;2023-05-29T21:26:59;10.90;;;6.70;;
67757;SDS011;54562;47.620;18.786;2023-05-29T21:30:08;10.50;;;6.70;;
67757;SDS011;54562;47.620;18.786;2023-05-29T21:33:16;9.90;;;6.40;;
67757;SDS011;54562;47.620;18.786;2023-05-29T21:36:22;11.50;;;6.50;;
67757;SDS011;54562;47.620;18.786;2023-05-29T21:39:29;11.10;;;7.10;;
67757;SDS011;54562;47.620;18.786;2023-05-29T21:42:35;11.40;;;6.50;;
67757;SDS011;54562;47.620;18.786;2023-05-29T21:45:41;14.60;;;7.40;;
67757;SDS011;54562;47.620;18.786;2023-05-29T21:48:48;10.60;;;7.00;;
67757;SDS011;54562;47.620;18.786;2023-05-29T21:51:56;11.90;;;7.20;;
67757;SDS011;54562;47.620;18.786;2023-05-29T21:55:03;9.90;;;6.60;;
67757;SDS011;54562;47.620;18.786;2023-05-29T21:58:11;12.60;;;6.90;;
67757;SDS011;54562;47.620;18.786;2023-05-29T22:01:17;11.40;;;7.20;;
67757;SDS011;54562;47.620;18.786;2023-05-29T22:04:24;10.80;;;7.00;;
67757;SDS011;54562;47.620;18.786;2023-05-29T22:07:32;10.80;;;7.10;;
67757;SDS011;54562;47.620;18.786;2023-05-29T22:10:38;12.40;;;7.10;;
67757;SDS011;54562;47.620;18.786;2023-05-29T22:13:45;11.40;;;7.70;;
67757;SDS011;54562;47.620;18.786;2023-05-29T22:16:51;12.00;;;7.30;;
67757;SDS011;54562;47.620;18.786;2023-05-29T22:19:58;11.00;;;6.90;;
67757;SDS011;54562;47.620;18.786;2023-05-29T22:23:06;11.00;;;7.10;;
67757;SDS011;54562;47.620;18.786;2023-05-29T22:26:20;13.40;;;7.40;;
67757;SDS011;54562;47.620;18.786;2023-05-29T22:29:27;12.50;;;7.10;;
67757;SDS011;54562;47.620;18.786;2023-05-29T22:32:34;10.80;;;7.50;;
67757;SDS011;54562;47.620;18.786;2023-05-29T22:35:44;11.30;;;7.00;;
67757;SDS011;54562;47.620;18.786;2023-05-29T22:38:50;12.50;;;7.00;;
67757;SDS011;54562;47.620;18.786;2023-05-29T22:41:57;10.20;;;7.10;;
67757;SDS011;54562;47.620;18.786;2023-05-29T22:45:04;11.40;;;7.30;;
67757;SDS011;54562;47.620;18.786;2023-05-29T22:48:12;12.90;;;7.70;;
67757;SDS011;54562;47.620;18.786;2023-05-29T22:51:21;12.00;;;7.50;;
67757;SDS011;54562;47.620;18.786;2023-05-29T22:54:28;14.40;;;7.70;;
67757;SDS011;54562;47.620;18.786;2023-05-29T22:57:35;14.30;;;7.40;;
67757;SDS011;54562;47.620;18.786;2023-05-29T23:00:42;12.40;;;7.10;;
67757;SDS011;54562;47.620;18.786;2023-05-29T23:03:49;12.00;;;7.00;;
67757;SDS011;54562;47.620;18.786;2023-05-29T23:06:55;12.40;;;7.30;;
67757;SDS011;54562;47.620;18.786;2023-05-29T23:10:02;12.30;;;7.20;;
67757;SDS011;54562;47.620;18.786;2023-05-29T23:13:09;11.10;;;7.00;;
67757;SDS011;54562;47.620;18.786;2023-05-29T23:16:15;11.40;;;6.60;;
67757;SDS011;54562;47.620;18.786;2023-05-29T23:19:22;11.10;;;6.80;;
67757;SDS011;54562;47.620;18.786;2023-05-29T23:22:29;11.90;;;6.80;;
67757;SDS011;54562;47.620;18.786;2023-05-29T23:25:35;10.60;;;6.40;;
67757;SDS011;54562;47.620;18.786;2023-05-29T23:28:42;10.10;;;6.20;;
67757;SDS011;54562;47.620;18.786;2023-05-29T23:31:49;12.50;;;6.60;;
67757;SDS011;54562;47.620;18.786;2023-05-29T23:34:56;10.80;;;6.80;;
67757;SDS011;54562;47.620;18.786;2023-05-29T23:38:03;12.40;;;7.40;;
67757;SDS011;54562;47.620;18.786;2023-05-29T23:41:10;11.10;;;6.80;;
67757;SDS011;54562;47.620;18.786;2023-05-29T23:44:16;11.30;;;6.90;;
67757;SDS011;54562;47.620;18.786;2023-05-29T23:47:23;11.70;;;7.20;;
67757;SDS011;54562;47.620;18.786;2023-05-29T23:50:29;12.30;;;7.50;;
67757;SDS011;54562;47.620;18.786;2023-05-29T23:53:36;14.90;;;7.90;;
67757;SDS011;54562;47.620;18.786;2023-05-29T23:56:43;12.40;;;7.30;;
67757;SDS011;54562;47.620;18.786;2023-05-29T23:59:50;12.50;;;7.50;;
